createdAt,value
2022-10-22T00:00:15.140Z,44.40
2022-10-22T00:03:19.115Z,43.63
2022-10-22T00:06:22.521Z,42.97
2022-10-22T00:09:26.861Z,43.00
2022-10-22T00:12:30.307Z,44.83
2022-10-22T00:15:34.461Z,53.40
2022-10-22T00:18:38.254Z,53.42
2022-10-22T00:21:42.246Z,44.58
2022-10-22T00:24:45.964Z,38.00
2022-10-22T00:27:49.315Z,38.45
2022-10-22T00:31:01.445Z,41.20
2022-10-22T00:34:04.708Z,43.83
2022-10-22T00:37:08.038Z,43.92
2022-10-22T00:40:12.782Z,41.85
2022-10-22T00:43:19.895Z,44.20
2022-10-22T00:46:23.648Z,45.83
2022-10-22T00:49:27.336Z,44.85
2022-10-22T00:52:31.368Z,43.22
2022-10-22T00:55:35.622Z,46.85
2022-10-22T00:58:44.605Z,47.05
2022-10-22T01:01:48.569Z,50.08
2022-10-22T01:04:51.872Z,50.67
2022-10-22T01:07:56.108Z,49.03
2022-10-22T01:11:19.231Z,43.38
2022-10-22T01:14:51.455Z,31.95
2022-10-22T01:18:11.534Z,33.92
2022-10-22T01:21:28.239Z,34.13
2022-10-22T01:24:42.726Z,37.20
2022-10-22T01:28:14.028Z,39.78
2022-10-22T01:31:19.370Z,37.75
2022-10-22T01:34:25.414Z,35.78
2022-10-22T01:37:36.348Z,35.97
2022-10-22T01:40:40.201Z,36.78
2022-10-22T01:43:43.305Z,37.28
2022-10-22T01:46:50.470Z,37.95
2022-10-22T01:50:26.413Z,36.67
2022-10-22T01:53:51.331Z,38.53
2022-10-22T01:57:34.238Z,37.50
2022-10-22T02:00:41.481Z,37.20
2022-10-22T02:04:12.015Z,39.78
2022-10-22T02:07:20.935Z,38.05
2022-10-22T02:10:26.130Z,38.55
2022-10-22T02:13:36.087Z,37.22
2022-10-22T02:16:43.561Z,39.03
2022-10-22T02:19:53.903Z,37.90
2022-10-22T02:22:58.222Z,35.83
2022-10-22T02:26:07.971Z,36.05
2022-10-22T02:29:21.174Z,39.38
2022-10-22T02:32:29.376Z,38.47
2022-10-22T02:35:33.758Z,37.10
2022-10-22T02:38:38.165Z,33.83
2022-10-22T02:41:41.594Z,32.58
2022-10-22T02:44:45.714Z,29.83
2022-10-22T02:47:49.252Z,22.60
2022-10-22T02:50:56.517Z,22.45
2022-10-22T02:54:00.268Z,26.15
2022-10-22T02:57:04.151Z,25.42
2022-10-22T03:00:09.969Z,26.90
2022-10-22T03:03:13.613Z,25.05
2022-10-22T03:06:17.098Z,26.42
2022-10-22T03:09:22.742Z,25.13
2022-10-22T03:12:28.615Z,25.55
2022-10-22T03:15:32.666Z,28.65
2022-10-22T03:18:36.253Z,28.33
2022-10-22T03:21:46.880Z,27.10
2022-10-22T03:24:55.184Z,26.60
2022-10-22T03:28:06.003Z,26.52
2022-10-22T03:31:09.056Z,28.08
2022-10-22T03:34:14.625Z,30.98
2022-10-22T03:37:17.956Z,31.20
2022-10-22T03:40:22.474Z,31.38
2022-10-22T03:43:25.446Z,32.90
2022-10-22T03:46:29.545Z,38.15
2022-10-22T03:49:32.680Z,33.10
2022-10-22T03:52:38.352Z,27.63
2022-10-22T03:55:42.476Z,29.85
2022-10-22T03:58:46.979Z,20.60
2022-10-22T04:01:50.592Z,16.88
2022-10-22T04:04:53.899Z,18.00
2022-10-22T04:07:57.544Z,20.02
2022-10-22T04:11:01.021Z,18.58
2022-10-22T04:14:04.724Z,18.50
2022-10-22T04:17:08.436Z,18.85
2022-10-22T04:20:11.921Z,17.40
2022-10-22T04:23:15.198Z,19.42
2022-10-22T04:26:20.024Z,17.83
2022-10-22T04:29:25.097Z,18.13
2022-10-22T04:32:28.776Z,17.15
2022-10-22T04:35:34.347Z,16.08
2022-10-22T04:38:41.419Z,15.43
2022-10-22T04:41:44.802Z,16.52
2022-10-22T04:44:47.756Z,15.30
2022-10-22T04:47:51.716Z,15.35
2022-10-22T04:50:55.372Z,14.73
2022-10-22T04:53:59.413Z,12.73
2022-10-22T04:57:02.705Z,11.85
2022-10-22T05:00:07.709Z,14.48
2022-10-22T05:03:11.426Z,13.88
2022-10-22T05:06:15.373Z,14.20
2022-10-22T05:09:20.847Z,16.80
2022-10-22T05:12:24.868Z,17.08
2022-10-22T05:15:28.670Z,15.63
2022-10-22T05:18:37.405Z,13.50
2022-10-22T05:21:41.261Z,13.75
2022-10-22T05:24:44.821Z,14.00
2022-10-22T05:27:51.793Z,14.45
2022-10-22T05:31:00.648Z,13.88
2022-10-22T05:34:04.842Z,16.55
2022-10-22T05:37:08.851Z,12.95
2022-10-22T05:40:19.319Z,14.05
2022-10-22T05:43:23.582Z,13.30
2022-10-22T05:46:29.983Z,11.90
2022-10-22T05:49:34.557Z,8.77
2022-10-22T05:52:38.554Z,12.05
2022-10-22T05:55:42.684Z,11.30
2022-10-22T05:58:46.552Z,11.90
2022-10-22T06:01:50.549Z,13.05
2022-10-22T06:04:54.528Z,13.07
2022-10-22T06:07:59.378Z,13.15
2022-10-22T06:11:02.768Z,12.45
2022-10-22T06:14:07.421Z,15.55
2022-10-22T06:17:12.633Z,15.55
2022-10-22T06:20:16.913Z,12.77
2022-10-22T06:23:21.265Z,13.00
2022-10-22T06:26:25.896Z,15.73
2022-10-22T06:29:29.133Z,15.52
2022-10-22T06:32:33.185Z,15.30
2022-10-22T06:35:37.145Z,14.73
2022-10-22T06:38:41.613Z,13.77
2022-10-22T06:41:45.525Z,14.45
2022-10-22T06:44:52.866Z,16.08
2022-10-22T06:47:56.614Z,13.13
2022-10-22T06:51:04.042Z,13.10
2022-10-22T06:54:07.939Z,13.40
2022-10-22T06:57:11.675Z,14.63
2022-10-22T07:00:15.464Z,11.73
2022-10-22T07:03:18.904Z,11.48
2022-10-22T07:06:24.691Z,15.82
2022-10-22T07:09:29.030Z,16.77
2022-10-22T07:12:34.860Z,21.58
2022-10-22T07:15:39.113Z,24.17
2022-10-22T07:18:43.359Z,25.35
2022-10-22T07:21:47.662Z,24.42
2022-10-22T07:24:51.737Z,26.17
2022-10-22T07:27:54.962Z,26.92
2022-10-22T07:30:59.383Z,22.98
2022-10-22T07:34:03.603Z,24.10
2022-10-22T07:37:07.727Z,20.92
2022-10-22T07:40:12.244Z,19.38
2022-10-22T07:43:15.982Z,17.65
2022-10-22T07:46:19.540Z,19.70
2022-10-22T07:49:23.653Z,19.10
2022-10-22T07:52:27.983Z,19.45
2022-10-22T07:55:31.937Z,19.83
2022-10-22T07:58:36.032Z,16.17
2022-10-22T08:01:39.306Z,17.55
2022-10-22T08:04:43.810Z,18.98
2022-10-22T08:07:48.039Z,23.33
2022-10-22T08:10:56.676Z,25.23
2022-10-22T08:14:01.683Z,20.42
2022-10-22T08:17:05.760Z,23.42
2022-10-22T08:20:12.322Z,25.05
2022-10-22T08:23:18.657Z,26.00
2022-10-22T08:26:22.323Z,24.75
2022-10-22T08:29:27.320Z,26.02
2022-10-22T08:32:34.189Z,27.95
2022-10-22T08:35:37.712Z,26.10
2022-10-22T08:38:40.772Z,28.55
2022-10-22T08:41:56.498Z,28.52
2022-10-22T08:45:25.199Z,30.02
2022-10-22T08:48:37.670Z,29.05
2022-10-22T08:51:41.439Z,29.73
2022-10-22T08:54:59.739Z,27.77
2022-10-22T08:58:23.528Z,27.60
2022-10-22T09:01:44.182Z,27.25
2022-10-22T09:04:57.688Z,28.20
2022-10-22T09:08:02.490Z,28.58
2022-10-22T09:11:11.880Z,24.27
2022-10-22T09:14:19.793Z,27.30
2022-10-22T09:17:30.363Z,25.80
2022-10-22T09:20:57.811Z,24.83
2022-10-22T09:24:16.758Z,27.13
2022-10-22T09:27:32.010Z,23.70
2022-10-22T09:30:37.248Z,17.73
2022-10-22T09:33:41.779Z,20.05
2022-10-22T09:36:47.215Z,21.27
2022-10-22T09:39:58.743Z,19.63
2022-10-22T09:43:06.747Z,20.65
2022-10-22T09:46:24.322Z,20.33
2022-10-22T09:49:33.672Z,16.17
2022-10-22T09:52:37.396Z,15.52
2022-10-22T09:55:42.648Z,15.25
2022-10-22T09:58:50.257Z,14.95
2022-10-22T10:02:08.519Z,14.95
2022-10-22T10:05:34.540Z,13.63
2022-10-22T10:08:37.572Z,13.32
2022-10-22T10:11:49.949Z,13.13
2022-10-22T10:15:05.400Z,14.27
2022-10-22T10:18:25.092Z,12.90
2022-10-22T10:22:06.975Z,12.40
2022-10-22T10:25:25.562Z,12.40
2022-10-22T10:28:37.249Z,13.48
2022-10-22T10:31:50.570Z,12.07
2022-10-22T10:35:03.785Z,12.68
2022-10-22T10:38:13.183Z,13.02
2022-10-22T10:42:01.095Z,12.98
2022-10-22T10:45:49.516Z,13.55
2022-10-22T10:49:09.028Z,15.93
2022-10-22T10:52:40.928Z,13.25
2022-10-22T10:56:00.435Z,14.45
2022-10-22T10:59:57.594Z,20.17
2022-10-22T11:03:09.758Z,16.98
2022-10-22T11:06:23.041Z,27.95
2022-10-22T11:09:48.485Z,23.67
2022-10-22T11:12:54.442Z,17.40
2022-10-22T11:16:32.974Z,22.70
2022-10-22T11:19:57.857Z,24.25
2022-10-22T11:23:20.853Z,24.05
2022-10-22T11:26:35.593Z,25.17
2022-10-22T11:29:50.708Z,26.20
2022-10-22T11:33:03.152Z,26.95
2022-10-22T11:36:08.637Z,21.35
2022-10-22T11:39:31.940Z,17.00
2022-10-22T11:42:54.783Z,15.95
2022-10-22T11:46:29.606Z,18.60
2022-10-22T11:49:46.249Z,17.58
2022-10-22T11:53:03.562Z,23.75
2022-10-22T11:56:11.658Z,33.65
2022-10-22T11:59:42.491Z,24.98
2022-10-22T12:02:46.849Z,30.50
2022-10-22T12:06:13.431Z,27.83
2022-10-22T12:09:20.619Z,24.75
2022-10-22T12:12:24.305Z,22.50
2022-10-22T12:15:29.858Z,22.52
2022-10-22T12:19:07.883Z,26.50
2022-10-22T12:22:19.394Z,28.48
2022-10-22T12:25:35.754Z,27.55
2022-10-22T12:28:41.439Z,26.90
2022-10-22T12:31:47.362Z,24.23
2022-10-22T12:34:53.793Z,21.17
2022-10-22T12:38:01.273Z,19.90
2022-10-22T12:41:05.152Z,15.40
2022-10-22T12:44:13.857Z,16.80
2022-10-22T12:47:19.782Z,16.08
2022-10-22T12:50:31.729Z,19.65
2022-10-22T12:53:38.605Z,18.25
2022-10-22T12:56:42.606Z,23.00
2022-10-22T12:59:50.087Z,19.77
2022-10-22T13:02:54.870Z,25.90
2022-10-22T13:06:12.648Z,23.10
2022-10-22T13:09:27.678Z,25.92
2022-10-22T13:12:38.537Z,22.75
2022-10-22T13:15:42.894Z,22.58
2022-10-22T13:18:47.975Z,20.58
2022-10-22T13:21:51.777Z,24.52
2022-10-22T13:28:22.821Z,44.72
2022-10-22T13:31:29.468Z,51.20
2022-10-22T13:34:32.899Z,50.38
2022-10-22T13:37:39.299Z,35.97
2022-10-22T13:40:43.622Z,37.53
2022-10-22T13:43:47.194Z,39.85
2022-10-22T13:46:50.735Z,32.88
2022-10-22T13:50:00.408Z,33.38
2022-10-22T13:53:22.884Z,30.48
2022-10-22T13:56:33.465Z,29.40
2022-10-22T13:59:40.362Z,31.10
2022-10-22T14:02:48.961Z,35.72
2022-10-22T14:05:55.753Z,34.28
2022-10-22T14:09:15.002Z,35.55
2022-10-22T14:12:24.045Z,35.38
2022-10-22T14:15:32.876Z,32.45
2022-10-22T14:18:42.417Z,28.45
2022-10-22T14:21:55.452Z,28.02
2022-10-22T14:25:04.373Z,29.30
2022-10-22T14:28:15.197Z,29.75
2022-10-22T14:31:22.741Z,26.55
2022-10-22T14:37:41.829Z,20.60
2022-10-22T14:40:49.746Z,23.58
2022-10-22T14:44:01.854Z,22.50
2022-10-22T14:47:10.370Z,19.15
2022-10-22T14:50:22.884Z,20.75
2022-10-22T14:53:32.828Z,19.38
2022-10-22T14:56:43.708Z,18.38
2022-10-22T14:59:58.067Z,20.60
2022-10-22T15:03:10.171Z,19.83
2022-10-22T15:06:21.043Z,18.30
2022-10-22T15:09:25.891Z,21.88
2022-10-22T15:12:30.222Z,23.13
2022-10-22T15:15:36.634Z,24.35
2022-10-22T15:18:40.893Z,27.95
2022-10-22T15:21:44.630Z,29.25
2022-10-22T15:24:49.029Z,30.55
2022-10-22T15:27:54.843Z,46.17
2022-10-22T15:31:02.504Z,39.47
2022-10-22T15:34:05.470Z,29.45
2022-10-22T15:37:13.262Z,27.88
2022-10-22T15:40:16.232Z,27.75
2022-10-22T15:43:19.406Z,26.48
2022-10-22T15:46:22.512Z,29.35
2022-10-22T15:49:27.609Z,27.75
2022-10-22T15:52:32.998Z,26.13
2022-10-22T15:55:37.121Z,23.88
2022-10-22T15:58:40.965Z,22.50
2022-10-22T16:01:44.724Z,23.33
2022-10-22T16:04:48.437Z,23.25
2022-10-22T16:07:52.103Z,30.02
2022-10-22T16:10:55.857Z,34.42
2022-10-22T16:14:00.788Z,31.55
2022-10-22T16:17:03.707Z,28.58
2022-10-22T16:20:08.391Z,28.25
2022-10-22T16:23:11.677Z,25.70
2022-10-22T16:26:16.532Z,21.98
2022-10-22T16:29:20.252Z,18.90
2022-10-22T16:32:24.351Z,21.35
2022-10-22T16:35:28.315Z,19.42
2022-10-22T16:38:31.658Z,18.65
2022-10-22T16:41:37.043Z,17.85
2022-10-22T16:44:41.015Z,18.80
2022-10-22T16:47:47.543Z,18.92
2022-10-22T16:50:51.720Z,18.77
2022-10-22T16:53:57.782Z,24.60
2022-10-22T16:57:02.796Z,39.25
2022-10-22T17:00:07.994Z,32.55
2022-10-22T17:03:13.545Z,57.22
2022-10-22T17:06:17.941Z,48.20
2022-10-22T17:09:21.570Z,65.43
2022-10-22T17:12:25.447Z,76.18
2022-10-22T17:15:30.029Z,89.75
2022-10-22T17:18:34.309Z,101.63
2022-10-22T17:21:39.576Z,116.68
2022-10-22T17:24:44.918Z,114.40
2022-10-22T17:27:48.968Z,117.10
2022-10-22T17:31:11.785Z,125.40
2022-10-22T17:34:17.636Z,133.00
2022-10-22T17:37:21.220Z,122.63
2022-10-22T17:40:26.131Z,112.68
2022-10-22T17:43:29.494Z,107.32
2022-10-22T17:46:33.527Z,88.90
2022-10-22T17:49:37.716Z,88.50
2022-10-22T17:52:41.309Z,94.20
2022-10-22T17:55:46.041Z,77.00
2022-10-22T17:58:49.770Z,70.90
2022-10-22T18:01:55.794Z,69.15
2022-10-22T18:05:04.211Z,62.08
2022-10-22T18:08:07.800Z,59.53
2022-10-22T18:11:15.142Z,58.72
2022-10-22T18:14:21.965Z,53.90
2022-10-22T18:20:32.295Z,46.75
2022-10-22T18:23:36.425Z,47.28
2022-10-22T18:26:40.017Z,42.28
2022-10-22T18:29:43.497Z,40.50
2022-10-22T18:32:48.345Z,74.07
2022-10-22T18:35:53.907Z,85.60
2022-10-22T18:39:00.754Z,86.13
2022-10-22T18:42:07.424Z,97.82
2022-10-22T18:45:12.710Z,84.20
2022-10-22T18:48:19.241Z,101.82
2022-10-22T18:51:23.538Z,94.38
2022-10-22T18:54:28.329Z,92.80
2022-10-22T18:57:32.484Z,86.45
2022-10-22T19:00:38.268Z,89.45
2022-10-22T19:03:42.338Z,73.45
2022-10-22T19:06:46.041Z,72.47
2022-10-22T19:09:49.404Z,69.10
2022-10-22T19:12:53.345Z,67.53
2022-10-22T19:16:03.864Z,63.05
2022-10-22T19:19:08.575Z,70.38
2022-10-22T19:22:12.449Z,73.25
2022-10-22T19:25:16.659Z,75.57
2022-10-22T19:28:20.083Z,82.85
2022-10-22T19:31:26.634Z,80.35
2022-10-22T19:34:30.036Z,79.90
2022-10-22T19:37:35.118Z,83.10
2022-10-22T19:40:38.459Z,85.72
2022-10-22T19:43:43.100Z,87.78
2022-10-22T19:46:47.205Z,82.13
2022-10-22T19:49:51.281Z,73.40
2022-10-22T19:52:55.783Z,72.85
2022-10-22T19:56:01.470Z,71.38
2022-10-22T19:59:06.497Z,74.88
2022-10-22T20:02:16.802Z,73.82
2022-10-22T20:08:26.047Z,65.78
2022-10-22T20:11:30.986Z,64.20
2022-10-22T20:14:38.469Z,60.05
2022-10-22T20:17:42.059Z,61.45
2022-10-22T20:20:47.546Z,59.53
2022-10-22T20:23:57.100Z,59.88
2022-10-22T20:27:00.671Z,58.80
2022-10-22T20:30:05.974Z,58.20
2022-10-22T20:33:09.657Z,53.83
2022-10-22T20:36:24.158Z,49.90
2022-10-22T20:39:28.645Z,48.63
2022-10-22T20:42:31.998Z,50.60
2022-10-22T20:45:36.569Z,48.67
2022-10-22T20:48:40.204Z,48.97
2022-10-22T20:51:43.512Z,49.50
2022-10-22T20:54:47.521Z,48.42
2022-10-22T20:57:51.873Z,47.60
2022-10-22T21:00:56.267Z,48.22
2022-10-22T21:04:00.493Z,46.50
2022-10-22T21:07:04.875Z,47.17
2022-10-22T21:10:09.194Z,48.38
2022-10-22T21:13:12.881Z,48.75
2022-10-22T21:16:18.340Z,47.92
2022-10-22T21:19:24.516Z,52.35
2022-10-22T21:22:28.699Z,48.55
2022-10-22T21:25:32.866Z,45.17
2022-10-22T21:28:38.293Z,41.60
2022-10-22T21:31:43.340Z,40.42
2022-10-22T21:34:46.701Z,40.67
2022-10-22T21:37:50.597Z,36.28
2022-10-22T21:40:54.958Z,34.20
2022-10-22T21:43:59.688Z,34.25
2022-10-22T21:47:03.531Z,37.38
2022-10-22T21:50:07.740Z,34.58
2022-10-22T21:53:12.760Z,32.78
2022-10-22T21:56:22.638Z,31.42
2022-10-22T21:59:25.941Z,34.55
2022-10-22T22:02:33.295Z,37.15
2022-10-22T22:05:36.464Z,37.28
2022-10-22T22:08:41.007Z,36.00
2022-10-22T22:11:44.268Z,37.92
2022-10-22T22:14:48.430Z,34.30
2022-10-22T22:17:52.031Z,31.83
2022-10-22T22:20:56.751Z,34.97
2022-10-22T22:24:00.985Z,39.10
2022-10-22T22:27:04.607Z,39.20
2022-10-22T22:30:10.304Z,36.30
2022-10-22T22:33:14.455Z,36.38
2022-10-22T22:36:18.163Z,35.65
2022-10-22T22:39:24.753Z,37.00
2022-10-22T22:42:29.380Z,33.35
2022-10-22T22:45:33.823Z,34.40
2022-10-22T22:48:37.981Z,33.45
2022-10-22T22:51:42.407Z,33.25
2022-10-22T22:54:47.786Z,32.85
2022-10-22T22:57:51.659Z,33.35
2022-10-22T23:00:56.104Z,29.55
2022-10-22T23:04:08.030Z,26.92
2022-10-22T23:07:12.920Z,20.27
2022-10-22T23:10:17.217Z,19.42
2022-10-22T23:13:20.869Z,18.52
2022-10-22T23:16:27.519Z,21.10
2022-10-22T23:19:31.727Z,21.20
2022-10-22T23:22:35.485Z,22.23
2022-10-22T23:25:41.182Z,20.20
2022-10-22T23:28:46.166Z,20.15
2022-10-22T23:31:51.524Z,23.52
2022-10-22T23:34:55.610Z,21.17
2022-10-22T23:37:59.687Z,23.40
2022-10-22T23:41:04.781Z,23.50
2022-10-22T23:44:09.197Z,23.83
2022-10-22T23:47:13.877Z,24.05
2022-10-22T23:50:18.247Z,30.95
2022-10-22T23:53:21.682Z,31.83
2022-10-22T23:56:27.789Z,31.45
2022-10-22T23:59:31.800Z,35.90
